Time;durP1;ratioP1;P1;durP2;ratioP2;P2;SDS_P1;SDS_P2;PMS_P1;PMS_P2;Temp;Humidity;BMP_temperature;BMP_pressure;BME280_temperature;BME280_humidity;BME280_pressure;Samples;Min_cycle;Max_cycle;Signal;HPM_P1;HPM_P2
2023/06/01 00:02:13;;;;;;;15.15;5.28;;;12.10;99.90;;;;;;6249910;22;20019;-81
2023/06/01 00:04:40;;;;;;;9.93;4.75;;;;;;;;;;6224885;22;20409;-83
2023/06/01 00:07:10;;;;;;;16.13;4.57;;;11.90;99.90;;;;;;6275537;22;20051;-85
2023/06/01 00:09:36;;;;;;;7.45;4.80;;;12.00;99.90;;;;;;6275504;22;20023;-83
2023/06/01 00:12:03;;;;;;;8.60;4.60;;;;;;;;;;6249937;22;20326;-82
2023/06/01 00:14:29;;;;;;;9.32;5.38;;;;;;;;;;6250021;22;20094;-83
2023/06/01 00:16:58;;;;;;;9.77;4.75;;;;;;;;;;6275000;22;20146;-82
2023/06/01 00:19:25;;;;;;;19.52;5.43;;;;;;;;;;6249896;22;20117;-83
2023/06/01 00:21:56;;;;;;;14.05;5.72;;;11.80;99.90;;;;;;6224809;22;20015;-84
2023/06/01 00:24:23;;;;;;;12.77;5.95;;;;;;;;;;6276288;22;20095;-92
2023/06/01 00:26:49;;;;;;;14.48;5.97;;;;;;;;;;6250540;22;20020;-91
2023/06/01 00:29:16;;;;;;;11.05;6.35;;;;;;;;;;6250697;22;20061;-93
2023/06/01 00:31:42;;;;;;;15.95;6.10;;;;;;;;;;6250362;22;20510;-93
2023/06/01 00:34:08;;;;;;;12.90;5.90;;;;;;;;;;6225538;22;20015;-91
2023/06/01 00:36:35;;;;;;;9.63;4.55;;;;;;;;;;6225516;22;20094;-83
2023/06/01 00:39:04;;;;;;;10.30;5.82;;;;;;;;;;6251056;22;20016;-89
2023/06/01 00:41:30;;;;;;;13.07;5.32;;;;;;;;;;6276460;22;20019;-87
2023/06/01 00:43:56;;;;;;;17.80;5.85;;;;;;;;;;6250822;22;20043;-93
2023/06/01 00:46:23;;;;;;;13.63;5.40;;;;;;;;;;6225255;22;20023;-89
2023/06/01 00:48:50;;;;;;;12.38;5.43;;;;;;;;;;6275980;22;20050;-92
2023/06/01 00:51:16;;;;;;;8.57;5.00;;;;;;;;;;6276492;22;20046;-93
2023/06/01 00:53:43;;;;;;;9.32;4.65;;;;;;;;;;6225679;22;20019;-91
2023/06/01 00:56:11;;;;;;;11.65;5.82;;;;;;;;;;6276065;22;20023;-93
2023/06/01 00:58:38;;;;;;;11.18;5.72;;;11.40;99.90;;;;;;6250567;22;20099;-92
2023/06/01 01:01:04;;;;;;;10.05;5.15;;;;;;;;;;6225137;22;20016;-89
2023/06/01 01:03:31;;;;;;;8.50;4.47;;;;;;;;;;6225341;22;20071;-92
2023/06/01 01:06:11;;;;;;;11.77;4.53;;;;;;;;;;6276301;22;20020;-90
2023/06/01 01:08:44;;;;;;;10.82;4.20;;;;;;;;;;6276308;22;20012;-94
2023/06/01 01:11:16;;;;;;;7.18;4.35;;;;;;;;;;6250561;22;20392;-90
2023/06/01 01:14:05;;;;;;;9.85;4.18;;;11.50;99.90;;;;;;6276175;22;20015;-94
2023/06/01 01:16:41;;;;;;;20.23;5.25;;;;;;;;;;6276195;22;20058;-93
2023/06/01 01:19:42;;;;;;;9.82;4.80;;;11.50;99.90;;;;;;6250661;22;20352;-92
2023/06/01 01:22:15;;;;;;;8.65;5.47;;;;;;;;;;6250511;22;20098;-89
2023/06/01 01:25:05;;;;;;;15.85;5.07;;;;;;;;;;6250604;22;20077;-93
2023/06/01 01:28:02;;;;;;;16.85;5.40;;;11.50;99.90;;;;;;6277038;22;20012;-91
2023/06/01 01:30:29;;;;;;;10.23;5.28;;;11.70;99.90;;;;;;6253169;22;20023;-93
2023/06/01 01:32:56;;;;;;;15.60;5.68;;;;;;;;;;6278427;22;20054;-92
2023/06/01 01:35:23;;;;;;;13.18;6.43;;;11.40;99.90;;;;;;6278651;22;20020;-92
2023/06/01 01:37:51;;;;;;;17.23;5.35;;;11.50;99.90;;;;;;6278981;22;20322;-90
2023/06/01 01:40:17;;;;;;;6.63;3.63;;;;;;;;;;6252777;22;20337;-91
2023/06/01 01:42:43;;;;;;;11.23;3.75;;;;;;;;;;6277362;22;20172;-83
2023/06/01 01:45:10;;;;;;;8.77;4.03;;;11.60;99.90;;;;;;6251454;22;20019;-83
2023/06/01 01:47:40;;;;;;;7.80;4.18;;;11.30;99.90;;;;;;6251686;22;20019;-84
2023/06/01 01:50:10;;;;;;;7.25;3.33;;;11.50;99.90;;;;;;6251445;22;20342;-84
2023/06/01 01:52:39;;;;;;;6.57;3.85;;;11.50;99.90;;;;;;6251193;22;20016;-83
2023/06/01 01:55:08;;;;;;;7.40;3.97;;;11.50;99.90;;;;;;6277060;22;20094;-84
2023/06/01 01:57:35;;;;;;;9.32;5.15;;;;;;;;;;6276880;22;20026;-84
2023/06/01 02:00:03;;;;;;;12.77;3.97;;;11.50;99.90;;;;;;6276563;22;20016;-82
2023/06/01 02:02:30;;;;;;;6.75;3.13;;;;;;;;;;6251269;22;20012;-84
2023/06/01 02:04:56;;;;;;;7.28;4.03;;;;;;;;;;6276611;22;20019;-83
2023/06/01 02:07:22;;;;;;;4.20;2.60;;;;;;;;;;6276733;22;20022;-85
2023/06/01 02:09:49;;;;;;;11.65;4.55;;;;;;;;;;6251037;22;20016;-84
2023/06/01 02:12:15;;;;;;;7.30;3.00;;;11.50;99.90;;;;;;6276618;22;20023;-83
2023/06/01 02:14:41;;;;;;;10.38;3.78;;;;;;;;;;6276547;22;20040;-84
2023/06/01 02:17:07;;;;;;;5.97;3.00;;;;;;;;;;6250992;22;20019;-83
2023/06/01 02:19:33;;;;;;;11.98;3.47;;;11.40;99.90;;;;;;6276578;22;20016;-83
2023/06/01 02:21:59;;;;;;;4.82;3.22;;;;;;;;;;6278016;22;20453;-84
2023/06/01 02:24:25;;;;;;;5.80;3.03;;;;;;;;;;6250944;22;20016;-83
2023/06/01 02:26:53;;;;;;;5.45;3.60;;;;;;;;;;6225703;22;20352;-84
2023/06/01 02:29:21;;;;;;;8.00;3.47;;;;;;;;;;6251081;22;20016;-84
2023/06/01 02:31:47;;;;;;;6.15;4.15;;;;;;;;;;6276419;22;20016;-85
2023/06/01 02:34:13;;;;;;;6.15;3.28;;;;;;;;;;6276144;22;20016;-85
2023/06/01 02:36:40;;;;;;;10.10;3.60;;;;;;;;;;6251079;22;20449;-85
2023/06/01 02:39:06;;;;;;;9.48;4.13;;;;;;;;;;6250515;22;20115;-84
2023/06/01 02:41:32;;;;;;;11.00;4.35;;;;;;;;;;6251858;22;20092;-93
2023/06/01 02:43:58;;;;;;;7.68;4.20;;;;;;;;;;6226941;22;20015;-89
2023/06/01 02:46:24;;;;;;;6.97;3.72;;;;;;;;;;6252105;22;20467;-93
2023/06/01 02:48:51;;;;;;;7.10;4.18;;;;;;;;;;6251981;22;20042;-93
2023/06/01 02:51:18;;;;;;;13.93;4.22;;;;;;;;;;6251655;22;20094;-92
2023/06/01 02:53:46;;;;;;;7.32;3.80;;;;;;;;;;6277378;22;20012;-93
2023/06/01 02:56:12;;;;;;;8.98;3.47;;;;;;;;;;6277141;22;20027;-93
2023/06/01 02:58:38;;;;;;;8.15;3.28;;;;;;;;;;6277355;22;20012;-90
2023/06/01 03:01:05;;;;;;;8.35;3.58;;;;;;;;;;6277106;22;20094;-92
2023/06/01 03:03:31;;;;;;;10.65;3.40;;;;;;;;;;6277393;22;20094;-93
2023/06/01 03:05:57;;;;;;;5.68;4.18;;;11.60;99.90;;;;;;6276978;22;20016;-87
2023/06/01 03:08:26;;;;;;;6.90;3.47;;;;;;;;;;6226024;22;20460;-88
2023/06/01 03:10:52;;;;;;;10.25;4.05;;;;;;;;;;6252339;22;20538;-88
2023/06/01 03:13:19;;;;;;;8.02;3.72;;;;;;;;;;6276882;22;20023;-87
2023/06/01 03:15:45;;;;;;;6.38;3.58;;;;;;;;;;6251433;22;20019;-83
2023/06/01 03:18:11;;;;;;;10.68;4.25;;;;;;;;;;6251577;22;20020;-89
2023/06/01 03:20:37;;;;;;;10.02;3.47;;;;;;;;;;6251422;22;20023;-89
2023/06/01 03:23:03;;;;;;;7.88;4.07;;;;;;;;;;6226284;22;20110;-90
2023/06/01 03:25:29;;;;;;;5.63;3.67;;;;;;;;;;6251569;22;20103;-87
2023/06/01 03:27:55;;;;;;;8.07;3.53;;;;;;;;;;6276589;22;20042;-91
2023/06/01 03:30:22;;;;;;;7.30;3.67;;;;;;;;;;6251282;22;20012;-81
2023/06/01 03:32:48;;;;;;;6.22;3.78;;;;;;;;;;6276448;22;20393;-81
2023/06/01 03:35:14;;;;;;;8.13;3.95;;;;;;;;;;6250868;22;20020;-85
2023/06/01 03:37:41;;;;;;;6.13;4.28;;;11.50;99.90;;;;;;6250764;22;20069;-81
2023/06/01 03:40:11;;;;;;;8.30;3.90;;;;;;;;;;6276103;22;20026;-81
2023/06/01 03:42:47;;;;;;;10.25;4.43;;;11.50;99.90;;;;;;6250624;22;20020;-80
2023/06/01 03:45:15;;;;;;;10.07;3.67;;;11.40;99.90;;;;;;6250614;22;20012;-81
2023/06/01 03:47:41;;;;;;;8.20;4.57;;;;;;;;;;6276072;22;20065;-83
2023/06/01 03:50:08;;;;;;;13.63;3.97;;;;;;;;;;6250852;22;20054;-93
2023/06/01 03:52:35;;;;;;;8.15;4.13;;;;;;;;;;6225557;22;20020;-84
2023/06/01 03:55:01;;;;;;;14.20;5.05;;;;;;;;;;6276243;22;20090;-83
2023/06/01 03:57:28;;;;;;;13.23;4.78;;;;;;;;;;6276024;22;20026;-83
2023/06/01 03:59:54;;;;;;;15.70;4.82;;;;;;;;;;6275937;22;20011;-92
2023/06/01 04:02:21;;;;;;;11.27;4.30;;;;;;;;;;6250459;22;20020;-81
2023/06/01 04:04:48;;;;;;;10.05;4.72;;;;;;;;;;6275899;22;20098;-82
2023/06/01 04:07:18;;;;;;;9.30;4.20;;;;;;;;;;6250374;22;20089;-82
2023/06/01 04:09:46;;;;;;;5.63;4.13;;;11.40;99.90;;;;;;6250572;22;20166;-81
2023/06/01 04:12:13;;;;;;;6.72;3.95;;;11.40;99.90;;;;;;6250516;22;20012;-85
2023/06/01 04:14:39;;;;;;;10.32;4.45;;;;;;;;;;6250303;22;20461;-84
2023/06/01 04:17:06;;;;;;;7.38;4.05;;;;;;;;;;6250752;22;20098;-89
2023/06/01 04:19:33;;;;;;;8.90;3.97;;;11.50;99.90;;;;;;6276377;22;20023;-91
2023/06/01 04:21:59;;;;;;;7.43;4.28;;;;;;;;;;6226279;22;20103;-89
2023/06/01 04:24:26;;;;;;;10.07;4.75;;;;;;;;;;6275898;22;20016;-86
2023/06/01 04:26:52;;;;;;;12.15;3.40;;;;;;;;;;6275750;22;20015;-88
2023/06/01 04:29:21;;;;;;;8.00;4.35;;;;;;;;;;6250678;22;20061;-89
2023/06/01 04:31:47;;;;;;;7.45;3.92;;;;;;;;;;6276203;22;20329;-88
2023/06/01 04:34:13;;;;;;;13.82;4.30;;;;;;;;;;6235997;22;20753;-84
2023/06/01 04:36:40;;;;;;;8.57;3.85;;;;;;;;;;6194064;23;20091;-86
2023/06/01 04:39:07;;;;;;;9.75;4.18;;;;;;;;;;6220164;23;20115;-89
2023/06/01 04:41:35;;;;;;;17.92;5.40;;;11.10;99.90;;;;;;6220426;23;20051;-86
2023/06/01 04:44:01;;;;;;;12.52;5.05;;;;;;;;;;6246033;23;20016;-84
2023/06/01 04:46:27;;;;;;;12.65;4.55;;;;;;;;;;6220429;23;20071;-85
2023/06/01 04:48:59;;;;;;;8.30;4.20;;;;;;;;;;6220821;23;20066;-81
2023/06/01 04:51:26;;;;;;;6.50;4.28;;;;;;;;;;6220247;23;20121;-84
2023/06/01 04:53:53;;;;;;;12.27;4.25;;;11.50;99.90;;;;;;6246187;23;20043;-80
2023/06/01 04:56:20;;;;;;;8.93;4.10;;;;;;;;;;6246024;23;20022;-80
2023/06/01 04:58:50;;;;;;;7.45;4.20;;;;;;;;;;6220255;23;20008;-82
2023/06/01 05:01:17;;;;;;;8.65;3.72;;;;;;;;;;6220103;23;20070;-80
2023/06/01 05:03:43;;;;;;;8.18;4.18;;;;;;;;;;6219789;23;20424;-80
2023/06/01 05:06:11;;;;;;;10.77;4.35;;;11.60;99.90;;;;;;6245236;23;20062;-79
2023/06/01 05:08:38;;;;;;;16.30;4.18;;;11.70;99.90;;;;;;6220750;23;20473;-83
2023/06/01 05:11:04;;;;;;;9.02;3.95;;;;;;;;;;6195658;23;20027;-85
2023/06/01 05:13:30;;;;;;;10.25;4.35;;;;;;;;;;6246866;23;20018;-84
2023/06/01 05:15:56;;;;;;;7.38;4.25;;;;;;;;;;6220693;23;20016;-82
2023/06/01 05:18:22;;;;;;;13.55;4.47;;;;;;;;;;6219333;23;20061;-81
2023/06/01 05:20:49;;;;;;;15.68;4.75;;;;;;;;;;6219148;23;20334;-80
2023/06/01 05:23:15;;;;;;;37.45;6.22;;;;;;;;;;6219346;23;20020;-81
2023/06/01 05:25:41;;;;;;;9.30;4.50;;;;;;;;;;6219412;23;20039;-80
2023/06/01 05:28:07;;;;;;;7.93;4.10;;;;;;;;;;6218750;23;20092;-83
2023/06/01 05:30:33;;;;;;;102.45;15.10;;;;;;;;;;6244394;23;20027;-81
2023/06/01 05:33:00;;;;;;;11.13;3.92;;;;;;;;;;6218976;23;20051;-80
2023/06/01 05:35:26;;;;;;;13.50;4.15;;;;;;;;;;6219067;23;20346;-83
2023/06/01 05:37:52;;;;;;;9.00;3.55;;;;;;;;;;6220308;23;20020;-83
2023/06/01 05:40:18;;;;;;;9.32;4.35;;;;;;;;;;6220059;23;20016;-81
2023/06/01 05:42:44;;;;;;;9.30;4.05;;;;;;;;;;6245763;23;20450;-82
2023/06/01 05:45:10;;;;;;;11.98;4.05;;;11.80;99.90;;;;;;6220008;23;20012;-80
2023/06/01 05:47:36;;;;;;;5.78;3.38;;;;;;;;;;6244181;23;20038;-81
2023/06/01 05:50:02;;;;;;;8.88;4.43;;;;;;;;;;6219115;23;20012;-82
2023/06/01 05:52:28;;;;;;;6.43;3.53;;;;;;;;;;6244062;23;20016;-82
2023/06/01 05:54:54;;;;;;;5.80;3.08;;;;;;;;;;6244281;23;20027;-81
2023/06/01 05:57:20;;;;;;;10.63;3.92;;;;;;;;;;6244285;23;20095;-82
2023/06/01 05:59:53;;;;;;;9.07;3.83;;;;;;;;;;6219191;23;20016;-83
2023/06/01 06:02:20;;;;;;;10.35;3.17;;;;;;;;;;6218752;23;20380;-80
2023/06/01 06:04:46;;;;;;;7.05;2.75;;;;;;;;;;6244100;23;20012;-80
2023/06/01 06:07:12;;;;;;;8.48;3.20;;;;;;;;;;6218833;23;20020;-79
2023/06/01 06:09:38;;;;;;;9.93;3.38;;;;;;;;;;6244317;23;20062;-80
2023/06/01 06:12:05;;;;;;;6.72;2.75;;;;;;;;;;6218996;23;20016;-81
2023/06/01 06:14:32;;;;;;;8.35;2.60;;;;;;;;;;6219423;23;20019;-84
2023/06/01 06:16:57;;;;;;;9.50;2.33;;;11.50;99.90;;;;;;6220988;23;20047;-81
2023/06/01 06:19:23;;;;;;;4.68;2.60;;;;;;;;;;6246081;23;20023;-82
2023/06/01 06:21:49;;;;;;;12.50;3.03;;;;;;;;;;6246136;23;20020;-79
2023/06/01 06:24:15;;;;;;;5.32;2.22;;;12.10;99.90;;;;;;6221600;23;20449;-83
2023/06/01 06:26:41;;;;;;;5.25;3.13;;;;;;;;;;6220749;23;20020;-84
2023/06/01 06:29:07;;;;;;;10.32;2.63;;;;;;;;;;6220874;23;20322;-84
2023/06/01 06:31:33;;;;;;;6.93;2.22;;;;;;;;;;6220745;23;20024;-83
2023/06/01 06:34:00;;;;;;;3.60;2.10;;;11.80;99.90;;;;;;6245902;23;20066;-82
2023/06/01 06:36:26;;;;;;;4.15;2.22;;;;;;;;;;6220675;23;20047;-84
2023/06/01 06:38:52;;;;;;;2.92;1.70;;;;;;;;;;6220679;23;20016;-81
2023/06/01 06:41:18;;;;;;;6.30;2.63;;;;;;;;;;6220643;23;20051;-80
2023/06/01 06:43:44;;;;;;;2.55;1.77;;;;;;;;;;6245725;23;20023;-82
2023/06/01 06:46:10;;;;;;;3.03;1.83;;;;;;;;;;6220528;23;20015;-81
2023/06/01 06:48:36;;;;;;;18.35;2.80;;;;;;;;;;6220682;23;20012;-82
2023/06/01 06:51:03;;;;;;;6.10;2.65;;;;;;;;;;6220511;23;20106;-80
2023/06/01 06:53:30;;;;;;;13.57;3.35;;;;;;;;;;6246383;23;20315;-80
2023/06/01 06:55:56;;;;;;;5.45;2.50;;;;;;;;;;6246378;23;20059;-80
2023/06/01 06:58:22;;;;;;;4.78;2.00;;;;;;;;;;6246157;23;20330;-84
2023/06/01 07:00:48;;;;;;;7.53;2.22;;;;;;;;;;6247422;22;20016;-83
2023/06/01 07:03:14;;;;;;;5.25;2.25;;;;;;;;;;6247351;22;20020;-82
2023/06/01 07:05:40;;;;;;;4.85;1.88;;;;;;;;;;6220296;23;20027;-79
2023/06/01 07:08:06;;;;;;;3.15;2.20;;;;;;;;;;6245658;23;20119;-83
2023/06/01 07:10:32;;;;;;;4.93;2.10;;;;;;;;;;6220308;23;20445;-82
2023/06/01 07:12:58;;;;;;;6.20;2.40;;;;;;;;;;6220159;23;20058;-81
2023/06/01 07:15:25;;;;;;;4.88;2.40;;;;;;;;;;6220177;23;20382;-84
2023/06/01 07:17:50;;;;;;;3.35;1.75;;;11.70;99.90;;;;;;6220085;23;20016;-83
2023/06/01 07:20:17;;;;;;;7.30;2.13;;;;;;;;;;6245377;23;20349;-84
2023/06/01 07:22:43;;;;;;;4.25;2.08;;;;;;;;;;6220214;23;20030;-82
2023/06/01 07:25:10;;;;;;;3.45;1.70;;;12.00;99.90;;;;;;6245232;23;20035;-83
2023/06/01 07:27:37;;;;;;;4.75;2.00;;;;;;;;;;6245346;23;20126;-83
2023/06/01 07:30:04;;;;;;;3.17;2.00;;;12.10;99.90;;;;;;6245286;23;20016;-81
2023/06/01 07:32:30;;;;;;;4.30;2.10;;;;;;;;;;6245359;23;20055;-83
2023/06/01 07:34:59;;;;;;;5.07;1.80;;;;;;;;;;6219880;23;20028;-81
2023/06/01 07:37:26;;;;;;;3.38;1.60;;;;;;;;;;6245087;23;20015;-82
2023/06/01 07:39:54;;;;;;;4.25;1.67;;;12.30;99.90;;;;;;6245223;23;20060;-83
2023/06/01 07:42:20;;;;;;;4.10;1.55;;;;;;;;;;6245298;23;20066;-81
2023/06/01 07:44:46;;;;;;;2.40;1.80;;;;;;;;;;6246601;22;20468;-83
2023/06/01 07:47:12;;;;;;;1.63;1.40;;;12.20;99.90;;;;;;6247339;22;20020;-81
2023/06/01 07:49:38;;;;;;;1.55;0.98;;;;;;;;;;6219899;23;20035;-80
2023/06/01 07:52:05;;;;;;;3.22;0.80;;;12.40;99.90;;;;;;6247132;22;20097;-80
2023/06/01 07:54:31;;;;;;;3.88;0.80;;;;;;;;;;6245074;23;20012;-83
2023/06/01 07:56:57;;;;;;;4.95;0.90;;;;;;;;;;6245005;23;20023;-83
2023/06/01 07:59:24;;;;;;;2.50;0.90;;;;;;;;;;6219719;23;20020;-83
2023/06/01 08:01:51;;;;;;;3.22;1.48;;;;;;;;;;6219692;23;20020;-81
2023/06/01 08:04:20;;;;;;;3.65;1.80;;;;;;;;;;6245022;23;20012;-80
2023/06/01 08:06:46;;;;;;;3.15;2.03;;;;;;;;;;6220347;23;20015;-82
2023/06/01 08:09:13;;;;;;;6.65;2.20;;;;;;;;;;6245044;23;20016;-82
2023/06/01 08:11:39;;;;;;;3.67;1.73;;;;;;;;;;6219493;23;20016;-84
2023/06/01 08:14:08;;;;;;;7.88;2.00;;;;;;;;;;6219688;23;20020;-83
2023/06/01 08:16:35;;;;;;;8.15;2.13;;;;;;;;;;6244871;23;20461;-84
2023/06/01 08:19:01;;;;;;;5.05;2.50;;;;;;;;;;6219536;23;20091;-83
2023/06/01 08:21:27;;;;;;;6.53;3.00;;;;;;;;;;6219326;23;20077;-83
2023/06/01 08:23:56;;;;;;;14.93;3.15;;;;;;;;;;6244854;23;20054;-83
2023/06/01 08:26:23;;;;;;;11.27;3.08;;;12.20;99.90;;;;;;6244711;22;20469;-81
2023/06/01 08:28:51;;;;;;;11.23;3.85;;;12.50;99.90;;;;;;6219576;23;20012;-82
2023/06/01 08:31:25;;;;;;;10.50;3.53;;;12.30;99.90;;;;;;6244640;23;20019;-86
2023/06/01 08:33:52;;;;;;;9.98;3.17;;;;;;;;;;6244703;23;20461;-84
2023/06/01 08:36:19;;;;;;;8.02;3.28;;;12.50;99.90;;;;;;6244475;23;20023;-84
2023/06/01 08:38:45;;;;;;;8.43;3.55;;;;;;;;;;6244314;23;20020;-84
2023/06/01 08:41:24;;;;;;;6.70;2.40;;;12.40;99.90;;;;;;6220850;23;20042;-83
2023/06/01 08:43:57;;;;;;;8.57;3.53;;;12.40;99.90;;;;;;6220229;23;20012;-85
2023/06/01 08:46:25;;;;;;;2.75;1.90;;;;;;;;;;6220071;23;20349;-84
2023/06/01 08:48:54;;;;;;;6.25;2.25;;;12.30;99.90;;;;;;6245758;23;20046;-88
2023/06/01 08:51:21;;;;;;;4.97;2.53;;;;;;;;;;6245834;23;20016;-88
2023/06/01 08:53:49;;;;;;;9.07;3.05;;;12.40;99.90;;;;;;6220837;23;20022;-89
2023/06/01 08:56:15;;;;;;;4.15;2.78;;;;;;;;;;6220316;23;20322;-88
2023/06/01 08:58:42;;;;;;;6.82;3.15;;;;;;;;;;6220668;23;20016;-86
2023/06/01 09:01:08;;;;;;;5.90;2.53;;;;;;;;;;6245410;23;20017;-86
2023/06/01 09:03:34;;;;;;;6.65;2.90;;;;;;;;;;6220211;23;20023;-85
2023/06/01 09:06:01;;;;;;;10.82;3.13;;;;;;;;;;6220488;23;20070;-86
2023/06/01 09:08:27;;;;;;;12.55;3.13;;;;;;;;;;6220414;23;20008;-82
2023/06/01 09:10:53;;;;;;;10.55;2.53;;;;;;;;;;6220715;23;20547;-84
2023/06/01 09:13:35;;;;;;;7.78;3.08;;;12.60;99.90;;;;;;6245931;23;20015;-84
2023/06/01 09:16:02;;;;;;;13.45;3.40;;;;;;;;;;6195896;23;20016;-84
2023/06/01 09:18:28;;;;;;;8.27;3.13;;;;;;;;;;6246147;23;20012;-83
2023/06/01 09:20:56;;;;;;;14.95;3.58;;;;;;;;;;6220116;23;20020;-87
2023/06/01 09:23:29;;;;;;;12.68;3.13;;;;;;;;;;6220529;23;20012;-84
2023/06/01 09:26:05;;;;;;;8.35;2.90;;;;;;;;;;6220395;23;20073;-84
2023/06/01 09:28:55;;;;;;;11.50;3.53;;;12.50;99.90;;;;;;6221100;23;20023;-81
2023/06/01 09:31:41;;;;;;;10.32;4.30;;;12.50;99.90;;;;;;6221116;23;20377;-84
2023/06/01 09:34:08;;;;;;;8.63;3.05;;;12.60;99.90;;;;;;6246298;23;20031;-85
2023/06/01 09:36:36;;;;;;;7.38;3.53;;;12.60;99.90;;;;;;6195952;23;20016;-85
2023/06/01 09:39:07;;;;;;;9.90;3.60;;;12.60;99.90;;;;;;6220770;23;20385;-88
2023/06/01 09:41:52;;;;;;;12.27;2.92;;;12.60;99.90;;;;;;6245517;23;20020;-82
2023/06/01 09:44:24;;;;;;;10.35;2.67;;;;;;;;;;6246151;23;20051;-87
2023/06/01 09:47:02;;;;;;;12.90;3.42;;;12.70;99.90;;;;;;6221280;23;20016;-88
2023/06/01 09:49:37;;;;;;;8.05;3.03;;;12.80;99.90;;;;;;6221293;23;20047;-87
2023/06/01 09:52:08;;;;;;;4.85;2.47;;;;;;;;;;6247487;23;20106;-87
2023/06/01 09:54:38;;;;;;;7.60;3.00;;;12.90;99.90;;;;;;6221048;23;20352;-83
2023/06/01 09:57:05;;;;;;;3.42;2.00;;;12.80;99.90;;;;;;6246290;23;20020;-81
2023/06/01 09:59:47;;;;;;;8.80;2.90;;;12.60;99.90;;;;;;6248234;22;20015;-82
2023/06/01 10:02:21;;;;;;;9.48;2.58;;;12.70;99.90;;;;;;6220765;23;20027;-83
2023/06/01 10:04:58;;;;;;;4.97;2.17;;;12.90;99.90;;;;;;6248102;22;20387;-82
2023/06/01 10:07:26;;;;;;;4.30;2.55;;;;;;;;;;6220903;23;20016;-82
2023/06/01 10:09:55;;;;;;;5.10;2.42;;;13.00;99.90;;;;;;6220892;23;20024;-80
2023/06/01 10:12:22;;;;;;;7.97;2.92;;;;;;;;;;6246071;23;20016;-82
2023/06/01 10:14:49;;;;;;;8.98;2.30;;;13.00;99.90;;;;;;6246440;23;20012;-82
2023/06/01 10:17:16;;;;;;;7.68;2.80;;;12.90;99.90;;;;;;6246027;23;20023;-83
2023/06/01 10:19:42;;;;;;;4.80;2.47;;;;;;;;;;6220749;23;20091;-82
2023/06/01 10:22:11;;;;;;;5.50;2.70;;;12.90;99.90;;;;;;6220834;23;20016;-91
2023/06/01 10:24:41;;;;;;;8.85;2.60;;;;;;;;;;6221645;23;20063;-91
2023/06/01 10:27:07;;;;;;;11.43;2.63;;;;;;;;;;6222229;23;20016;-83
2023/06/01 10:29:33;;;;;;;7.90;2.85;;;13.20;99.90;;;;;;6246420;23;20361;-83
2023/06/01 10:32:00;;;;;;;13.32;3.00;;;;;;;;;;6221434;23;20290;-87
2023/06/01 10:34:40;;;;;;;8.70;3.10;;;13.30;99.90;;;;;;6222143;23;20046;-90
2023/06/01 10:37:06;;;;;;;8.30;3.15;;;;;;;;;;6246395;23;20020;-89
2023/06/01 10:39:33;;;;;;;14.63;3.22;;;13.10;99.90;;;;;;6246689;23;20090;-86
2023/06/01 10:42:14;;;;;;;10.70;2.83;;;;;;;;;;6221273;23;20016;-90
2023/06/01 10:44:40;;;;;;;4.57;2.88;;;;;;;;;;6246823;23;20016;-90
2023/06/01 10:47:07;;;;;;;14.02;3.17;;;;;;;;;;6221652;23;20016;-90
2023/06/01 10:49:51;;;;;;;4.78;2.33;;;13.20;99.90;;;;;;6221579;23;20389;-91
2023/06/01 10:52:34;;;;;;;;;;;13.20;99.90;;;;;;6247158;23;20020;-89
2023/06/01 10:55:06;;;;;;;4.35;2.40;;;;;;;;;;6221285;23;19922;-90
2023/06/01 10:57:45;;;;;;;5.30;2.83;;;13.20;99.90;;;;;;6221345;23;20020;-89
2023/06/01 11:00:11;;;;;;;7.07;2.50;;;;;;;;;;6221212;23;20004;-82
2023/06/01 11:03:04;;;;;;;11.95;2.80;;;13.20;99.90;;;;;;6246386;23;20016;-90
2023/06/01 11:05:50;;;;;;;5.37;3.07;;;;;;;;;;6243430;23;20078;-90
2023/06/01 11:08:22;;;;;;;6.47;3.50;;;;;;;;;;6246083;23;20357;-91
2023/06/01 11:10:58;;;;;;;9.05;3.17;;;13.40;99.90;;;;;;6246536;23;20046;-91
2023/06/01 11:13:39;;;;;;;7.10;2.95;;;13.20;99.90;;;;;;6246052;23;20008;-89
2023/06/01 11:16:06;;;;;;;6.93;3.40;;;;;;;;;;6196203;23;20051;-91
2023/06/01 11:18:42;;;;;;;5.22;3.60;;;;;;;;;;6249255;23;20461;-88
2023/06/01 11:21:12;;;;;;;9.07;3.38;;;;;;;;;;6221011;23;20453;-87
2023/06/01 11:23:39;;;;;;;5.10;2.88;;;;;;;;;;6221228;23;20334;-84
2023/06/01 11:26:07;;;;;;;8.52;3.20;;;13.40;99.90;;;;;;6220587;23;20047;-90
2023/06/01 11:28:33;;;;;;;5.82;3.13;;;;;;;;;;6195703;23;20039;-89
2023/06/01 11:31:03;;;;;;;11.15;3.80;;;;;;;;;;6220573;23;20020;-90
2023/06/01 11:33:31;;;;;;;8.18;3.47;;;13.30;99.90;;;;;;6220712;23;20457;-89
2023/06/01 11:36:01;;;;;;;6.50;3.05;;;13.40;99.90;;;;;;6245862;23;20027;-89
2023/06/01 11:38:43;;;;;;;7.68;3.45;;;13.40;99.90;;;;;;6196074;23;20016;-90
2023/06/01 11:41:10;;;;;;;5.25;2.63;;;;;;;;;;6220305;23;20020;-90
2023/06/01 11:43:36;;;;;;;5.32;2.55;;;;;;;;;;6220435;23;20070;-91
2023/06/01 11:46:06;;;;;;;10.02;3.30;;;13.50;99.90;;;;;;6245630;23;20032;-88
2023/06/01 11:48:33;;;;;;;6.35;3.50;;;;;;;;;;6220955;23;20096;-88
2023/06/01 11:51:00;;;;;;;5.32;3.08;;;13.80;99.90;;;;;;6220568;23;20016;-90
2023/06/01 11:53:27;;;;;;;7.38;3.17;;;13.70;99.90;;;;;;6246029;23;20039;-90
2023/06/01 11:55:56;;;;;;;7.65;3.00;;;13.60;99.90;;;;;;6245561;23;20020;-86
2023/06/01 11:58:26;;;;;;;10.40;2.67;;;13.80;99.90;;;;;;6245907;23;20095;-85
2023/06/01 12:00:53;;;;;;;10.38;3.28;;;;;;;;;;6245783;23;20019;-85
2023/06/01 12:03:19;;;;;;;10.68;3.22;;;;;;;;;;6220845;23;20090;-88
2023/06/01 12:05:49;;;;;;;10.73;3.45;;;;;;;;;;6221005;23;20054;-84
2023/06/01 12:08:18;;;;;;;14.07;3.58;;;13.40;99.90;;;;;;6221321;23;20020;-84
2023/06/01 12:10:50;;;;;;;8.32;3.33;;;13.50;99.90;;;;;;6220650;23;20461;-82
2023/06/01 12:13:16;;;;;;;12.55;3.63;;;;;;;;;;6220268;23;20087;-81
2023/06/01 12:15:42;;;;;;;10.60;3.42;;;;;;;;;;6220136;23;20082;-81
2023/06/01 12:18:11;;;;;;;5.22;2.33;;;;;;;;;;6220006;23;20054;-83
2023/06/01 12:20:41;;;;;;;5.95;2.65;;;13.50;99.90;;;;;;6245225;23;20020;-82
2023/06/01 12:23:12;;;;;;;5.80;2.65;;;13.20;99.90;;;;;;6245729;23;20094;-86
2023/06/01 12:25:51;;;;;;;5.35;2.83;;;13.50;99.90;;;;;;6245673;23;20023;-87
2023/06/01 12:28:17;;;;;;;9.40;3.33;;;;;;;;;;6245718;23;20076;-86
2023/06/01 12:30:44;;;;;;;6.97;2.63;;;;;;;;;;6219493;23;20476;-83
2023/06/01 12:33:35;;;;;;;4.95;2.50;;;13.50;99.90;;;;;;6220222;23;20012;-84
2023/06/01 12:36:03;;;;;;;4.63;2.60;;;13.60;99.90;;;;;;6244649;23;20083;-84
2023/06/01 12:38:48;;;;;;;5.07;2.90;;;13.60;99.90;;;;;;6244727;23;20515;-82
2023/06/01 12:41:15;;;;;;;5.90;2.97;;;;;;;;;;6244661;23;20051;-83
2023/06/01 12:43:50;;;;;;;14.38;3.83;;;;;;;;;;6219557;23;20016;-83
2023/06/01 12:46:19;;;;;;;5.93;2.58;;;;;;;;;;6244661;23;20076;-83
2023/06/01 12:48:47;;;;;;;7.03;2.92;;;;;;;;;;6219270;23;20100;-83
2023/06/01 12:51:13;;;;;;;5.05;2.63;;;;;;;;;;6219941;23;20091;-82
2023/06/01 12:53:39;;;;;;;13.23;3.40;;;13.50;99.90;;;;;;6244467;23;20023;-84
2023/06/01 12:56:06;;;;;;;5.85;3.13;;;13.50;99.90;;;;;;6194308;23;20027;-84
2023/06/01 12:58:33;;;;;;;8.73;3.55;;;;;;;;;;6219482;23;20036;-83
2023/06/01 13:00:59;;;;;;;8.57;2.90;;;;;;;;;;6244418;23;20471;-84
2023/06/01 13:03:25;;;;;;;6.00;3.20;;;;;;;;;;6220022;23;20016;-83
2023/06/01 13:05:51;;;;;;;11.90;3.40;;;;;;;;;;6219500;23;20070;-87
2023/06/01 13:08:18;;;;;;;10.13;3.50;;;;;;;;;;6219888;23;20012;-80
2023/06/01 13:10:44;;;;;;;9.63;2.92;;;;;;;;;;6219746;23;20012;-82
2023/06/01 13:13:13;;;;;;;6.93;3.20;;;13.30;99.90;;;;;;6219732;23;20519;-85
2023/06/01 13:15:42;;;;;;;8.77;2.55;;;13.50;99.90;;;;;;6244860;23;20012;-83
2023/06/01 13:18:09;;;;;;;7.18;2.75;;;;;;;;;;6244890;23;20050;-84
2023/06/01 13:20:35;;;;;;;8.68;2.35;;;;;;;;;;6244864;23;20404;-86
2023/06/01 13:23:03;;;;;;;5.32;2.35;;;;;;;;;;6219502;23;20020;-89
2023/06/01 13:25:29;;;;;;;10.65;2.75;;;;;;;;;;6219568;23;20039;-80
2023/06/01 13:27:56;;;;;;;4.82;2.30;;;;;;;;;;6244528;23;20105;-82
2023/06/01 13:30:22;;;;;;;3.53;3.20;;;13.70;99.90;;;;;;6244397;23;20012;-80
2023/06/01 13:32:48;;;;;;;7.20;3.00;;;;;;;;;;6194235;23;20020;-86
2023/06/01 13:35:15;;;;;;;8.20;3.33;;;;;;;;;;6219393;23;20016;-87
2023/06/01 13:37:41;;;;;;;7.28;4.30;;;;;;;;;;6244697;23;20031;-86
2023/06/01 13:40:07;;;;;;;9.13;2.65;;;13.50;99.90;;;;;;6244971;23;20468;-83
2023/06/01 13:42:33;;;;;;;6.10;2.78;;;;;;;;;;6219476;23;20024;-87
2023/06/01 13:44:59;;;;;;;8.63;2.60;;;;;;;;;;6244724;23;20017;-82
2023/06/01 13:47:25;;;;;;;5.57;3.25;;;;;;;;;;6244303;23;20012;-85
2023/06/01 13:49:52;;;;;;;7.75;2.58;;;13.50;99.90;;;;;;6219487;23;20449;-83
2023/06/01 13:52:18;;;;;;;5.20;2.90;;;;;;;;;;6219733;23;20423;-87
2023/06/01 13:54:44;;;;;;;4.40;2.33;;;13.80;99.90;;;;;;6219642;23;20043;-83
2023/06/01 13:57:11;;;;;;;3.50;2.40;;;13.40;99.90;;;;;;6244732;23;20020;-81
2023/06/01 13:59:37;;;;;;;4.90;2.45;;;;;;;;;;6244374;23;20031;-83
2023/06/01 14:02:04;;;;;;;6.60;2.88;;;13.60;99.90;;;;;;6244075;23;20026;-83
2023/06/01 14:04:31;;;;;;;8.48;3.17;;;13.60;99.90;;;;;;6219198;23;20024;-83
2023/06/01 14:06:57;;;;;;;12.68;4.13;;;;;;;;;;6244158;23;20062;-83
2023/06/01 14:09:23;;;;;;;7.53;3.00;;;13.40;99.90;;;;;;6244178;23;20035;-82